createdAt,value
2022-12-29T00:00:07.770Z,9.60
2022-12-29T00:02:35.061Z,4.47
2022-12-29T00:05:02.901Z,3.35
2022-12-29T00:07:30.140Z,2.78
2022-12-29T00:09:57.281Z,4.82
2022-12-29T00:12:24.497Z,6.47
2022-12-29T00:15:10.009Z,5.00
2022-12-29T00:17:37.197Z,3.60
2022-12-29T00:20:23.657Z,4.43
2022-12-29T00:23:09.168Z,3.63
2022-12-29T00:25:55.710Z,3.97
2022-12-29T00:28:41.588Z,2.92
2022-12-29T00:31:31.813Z,6.72
2022-12-29T00:34:18.278Z,3.63
2022-12-29T00:36:45.993Z,3.83
2022-12-29T00:39:37.404Z,3.35
2022-12-29T00:42:28.398Z,2.88
2022-12-29T00:44:55.639Z,3.70
2022-12-29T00:47:22.822Z,4.28
2022-12-29T00:49:49.984Z,2.13
2022-12-29T00:52:17.125Z,2.33
2022-12-29T00:54:45.981Z,2.17
2022-12-29T00:57:14.103Z,2.60
2022-12-29T00:59:43.607Z,4.03
2022-12-29T01:02:11.496Z,2.83
2022-12-29T01:04:38.785Z,7.30
2022-12-29T01:07:06.031Z,4.97
2022-12-29T01:09:52.144Z,3.80
2022-12-29T01:12:39.790Z,5.05
2022-12-29T01:15:09.975Z,3.30
2022-12-29T01:17:37.235Z,3.17
2022-12-29T01:20:05.841Z,5.10
2022-12-29T01:22:33.011Z,4.00
2022-12-29T01:25:01.101Z,5.32
2022-12-29T01:27:28.785Z,5.05
2022-12-29T01:29:56.002Z,3.50
2022-12-29T01:32:23.537Z,3.15
2022-12-29T01:34:50.800Z,2.95
2022-12-29T01:37:18.023Z,4.28
2022-12-29T01:39:45.164Z,4.07
2022-12-29T01:42:19.918Z,5.25
2022-12-29T01:45:03.882Z,4.97
2022-12-29T01:47:45.033Z,3.42
2022-12-29T01:50:34.289Z,4.30
2022-12-29T01:53:27.191Z,2.03
2022-12-29T01:56:03.713Z,4.03
2022-12-29T01:58:38.883Z,2.65
2022-12-29T02:01:07.026Z,3.10
2022-12-29T02:03:36.243Z,2.88
2022-12-29T02:06:16.455Z,4.82
2022-12-29T02:08:48.077Z,5.00
2022-12-29T02:11:17.447Z,3.00
2022-12-29T02:13:44.685Z,3.92
2022-12-29T02:16:43.077Z,2.97
2022-12-29T02:19:25.217Z,5.35
2022-12-29T02:22:15.465Z,4.93
2022-12-29T02:25:33.395Z,3.72
2022-12-29T02:28:48.384Z,3.33
2022-12-29T02:31:40.350Z,5.00
2022-12-29T02:34:45.181Z,2.67
2022-12-29T02:37:38.339Z,4.55
2022-12-29T02:40:33.541Z,2.35
2022-12-29T02:43:32.305Z,5.93
2022-12-29T02:46:36.509Z,9.60
2022-12-29T02:49:41.015Z,5.45
2022-12-29T02:52:17.690Z,5.05
2022-12-29T02:54:45.069Z,7.50
2022-12-29T02:57:34.356Z,3.85
2022-12-29T03:00:08.422Z,3.30
2022-12-29T03:02:42.980Z,3.97
2022-12-29T03:05:41.201Z,4.20
2022-12-29T03:08:27.456Z,4.65
2022-12-29T03:11:28.371Z,4.68
2022-12-29T03:14:46.645Z,4.03
2022-12-29T03:17:30.632Z,6.28
2022-12-29T03:20:09.006Z,3.55
2022-12-29T03:22:44.856Z,2.45
2022-12-29T03:25:24.905Z,4.95
2022-12-29T03:27:59.387Z,2.83
2022-12-29T03:30:30.405Z,2.85
2022-12-29T03:33:04.668Z,4.13
2022-12-29T03:35:38.297Z,4.03
2022-12-29T03:38:26.333Z,5.93
2022-12-29T03:41:01.561Z,3.15
2022-12-29T03:43:30.826Z,4.53
2022-12-29T03:45:57.995Z,3.50
2022-12-29T03:48:25.217Z,7.43
2022-12-29T03:50:52.482Z,3.17
2022-12-29T03:53:19.664Z,3.00
2022-12-29T03:55:46.803Z,5.38
2022-12-29T03:58:13.950Z,5.05
2022-12-29T04:00:41.465Z,4.78
2022-12-29T04:03:08.718Z,4.70
2022-12-29T04:05:36.003Z,5.28
2022-12-29T04:08:03.158Z,4.25
2022-12-29T04:10:30.377Z,3.25
2022-12-29T04:12:57.522Z,3.55
2022-12-29T04:15:25.351Z,3.17
2022-12-29T04:17:52.849Z,6.30
2022-12-29T04:20:38.535Z,2.97
2022-12-29T04:23:07.722Z,7.03
2022-12-29T04:25:35.408Z,8.68
2022-12-29T04:28:03.239Z,4.45
2022-12-29T04:30:30.384Z,3.70
2022-12-29T04:32:57.546Z,4.38
2022-12-29T04:35:24.715Z,5.35
2022-12-29T04:37:51.902Z,3.95
2022-12-29T04:40:19.130Z,4.32
2022-12-29T04:42:46.290Z,4.30
2022-12-29T04:45:13.440Z,2.67
2022-12-29T04:47:41.395Z,5.45
2022-12-29T04:50:08.797Z,3.25
2022-12-29T04:52:36.513Z,3.90
2022-12-29T04:55:05.872Z,3.53
2022-12-29T04:57:33.312Z,5.68
2022-12-29T05:00:00.600Z,2.95
2022-12-29T05:02:27.956Z,3.47
2022-12-29T05:04:55.235Z,2.45
2022-12-29T05:07:22.435Z,4.32
2022-12-29T05:09:49.648Z,4.05
2022-12-29T05:12:16.832Z,3.65
2022-12-29T05:14:45.157Z,3.90
2022-12-29T05:17:12.307Z,2.65
2022-12-29T05:19:39.498Z,1.83
2022-12-29T05:22:06.672Z,2.20
2022-12-29T05:24:34.577Z,2.80
2022-12-29T05:27:01.769Z,3.00
2022-12-29T05:29:28.920Z,2.92
2022-12-29T05:31:56.206Z,2.80
2022-12-29T05:34:23.432Z,2.40
2022-12-29T05:36:50.706Z,5.22
2022-12-29T05:39:18.020Z,3.25
2022-12-29T05:41:45.609Z,3.28
2022-12-29T05:44:12.872Z,1.75
2022-12-29T05:46:40.216Z,2.92
2022-12-29T05:49:07.676Z,2.15
2022-12-29T05:51:34.967Z,2.88
2022-12-29T05:54:02.131Z,1.52
2022-12-29T05:56:29.415Z,1.63
2022-12-29T05:58:56.595Z,3.03
2022-12-29T06:01:23.901Z,3.17
2022-12-29T06:03:51.257Z,3.25
2022-12-29T06:06:18.730Z,2.22
2022-12-29T06:08:45.890Z,1.65
2022-12-29T06:11:13.657Z,2.17
2022-12-29T06:13:40.805Z,2.22
2022-12-29T06:16:08.051Z,2.55
2022-12-29T06:18:35.268Z,2.90
2022-12-29T06:21:05.300Z,3.97
2022-12-29T06:23:32.560Z,1.67
2022-12-29T06:25:59.737Z,1.48
2022-12-29T06:28:26.957Z,5.18
2022-12-29T06:30:54.198Z,3.08
2022-12-29T06:33:21.984Z,3.13
2022-12-29T06:35:49.654Z,2.63
2022-12-29T06:38:16.833Z,1.95
2022-12-29T06:40:46.186Z,1.48
2022-12-29T06:43:13.494Z,2.15
2022-12-29T06:45:41.929Z,2.38
2022-12-29T06:48:09.375Z,2.75
2022-12-29T06:50:36.804Z,3.58
2022-12-29T06:53:04.431Z,3.78
2022-12-29T06:55:31.802Z,3.95
2022-12-29T06:57:59.651Z,2.25
2022-12-29T07:00:26.881Z,7.97
2022-12-29T07:02:59.060Z,2.30
2022-12-29T07:05:28.646Z,1.65
2022-12-29T07:07:56.406Z,2.83
2022-12-29T07:10:24.119Z,1.38
2022-12-29T07:12:51.665Z,2.35
2022-12-29T07:15:19.003Z,2.38
2022-12-29T07:17:46.167Z,1.73
2022-12-29T07:20:13.283Z,2.60
2022-12-29T07:22:40.419Z,1.13
2022-12-29T07:25:07.994Z,1.13
2022-12-29T07:27:35.216Z,1.02
2022-12-29T07:30:02.529Z,2.05
2022-12-29T07:32:34.815Z,1.40
2022-12-29T07:35:02.312Z,1.13
2022-12-29T07:37:29.539Z,1.00
2022-12-29T07:39:56.674Z,1.08
2022-12-29T07:42:24.088Z,1.73
2022-12-29T07:44:51.227Z,0.80
2022-12-29T07:47:18.405Z,1.27
2022-12-29T07:49:45.607Z,3.05
2022-12-29T07:52:12.752Z,1.63
2022-12-29T07:54:39.939Z,2.28
2022-12-29T07:57:07.130Z,1.27
2022-12-29T07:59:34.359Z,0.80
2022-12-29T08:02:02.173Z,1.20
2022-12-29T08:04:29.500Z,1.45
2022-12-29T08:06:56.675Z,2.10
2022-12-29T08:09:24.040Z,2.10
2022-12-29T08:11:52.092Z,1.85
2022-12-29T08:14:19.939Z,1.02
2022-12-29T08:16:47.760Z,0.95
2022-12-29T08:19:15.165Z,4.15
2022-12-29T08:21:42.569Z,8.13
2022-12-29T08:24:10.372Z,2.70
2022-12-29T08:26:37.667Z,2.80
2022-12-29T08:29:04.847Z,0.73
2022-12-29T08:31:32.056Z,2.38
2022-12-29T08:34:00.942Z,5.38
2022-12-29T08:36:28.082Z,3.10
2022-12-29T08:38:55.248Z,3.70
2022-12-29T08:41:22.384Z,1.55
2022-12-29T08:43:50.877Z,2.60
2022-12-29T08:46:18.241Z,3.20
2022-12-29T08:48:45.818Z,1.98
2022-12-29T08:51:14.253Z,2.25
2022-12-29T08:53:42.723Z,1.00
2022-12-29T08:56:12.173Z,4.50
2022-12-29T08:58:39.828Z,3.13
2022-12-29T09:01:07.594Z,1.48
2022-12-29T09:04:12.848Z,3.50
2022-12-29T09:06:22.565Z,5.15
2022-12-29T09:08:49.723Z,2.35
2022-12-29T09:11:24.281Z,4.30
2022-12-29T09:13:52.259Z,6.03
2022-12-29T09:16:23.514Z,3.45
2022-12-29T09:18:51.608Z,2.05
2022-12-29T09:21:18.858Z,4.07
2022-12-29T09:23:46.061Z,5.53
2022-12-29T09:26:13.248Z,3.08
2022-12-29T09:28:41.141Z,2.88
2022-12-29T09:31:08.439Z,1.08
2022-12-29T09:33:35.705Z,1.70
2022-12-29T09:36:04.078Z,2.33
2022-12-29T09:38:31.641Z,3.65
2022-12-29T09:41:30.695Z,4.72
2022-12-29T09:44:42.162Z,27.73
2022-12-29T09:47:15.511Z,6.35
2022-12-29T09:50:01.934Z,4.03
2022-12-29T09:52:41.882Z,2.20
2022-12-29T09:55:18.315Z,5.70
2022-12-29T09:57:54.868Z,4.88
2022-12-29T10:00:34.640Z,2.28
2022-12-29T10:03:41.953Z,5.90
2022-12-29T10:07:19.425Z,2.67
2022-12-29T10:09:57.329Z,5.50
2022-12-29T10:12:49.753Z,2.15
2022-12-29T10:15:39.133Z,1.88
2022-12-29T10:18:30.899Z,4.63
2022-12-29T10:21:09.861Z,4.07
2022-12-29T10:23:46.939Z,1.95
2022-12-29T10:26:19.691Z,5.28
2022-12-29T10:28:56.660Z,3.78
2022-12-29T10:31:33.152Z,2.60
2022-12-29T10:34:07.492Z,3.67
2022-12-29T10:36:40.800Z,2.45
2022-12-29T10:39:31.107Z,1.55
2022-12-29T10:42:22.323Z,3.97
2022-12-29T10:44:49.712Z,3.65
2022-12-29T10:47:25.640Z,3.03
2022-12-29T10:49:53.740Z,2.85
2022-12-29T10:52:24.301Z,3.70
2022-12-29T10:55:01.120Z,3.25
2022-12-29T10:57:46.668Z,3.58
2022-12-29T11:00:21.490Z,2.35
2022-12-29T11:03:45.408Z,3.45
2022-12-29T11:06:18.478Z,2.50
2022-12-29T11:11:37.008Z,3.40
2022-12-29T11:14:20.818Z,3.70
2022-12-29T11:17:00.364Z,2.13
2022-12-29T11:19:34.936Z,4.18
2022-12-29T11:22:29.189Z,2.10
2022-12-29T11:25:11.863Z,2.75
2022-12-29T11:27:39.173Z,6.40
2022-12-29T11:30:26.318Z,4.60
2022-12-29T11:32:56.283Z,3.58
2022-12-29T11:35:43.300Z,5.90
2022-12-29T11:38:34.910Z,4.30
2022-12-29T11:41:04.997Z,2.72
2022-12-29T11:43:38.851Z,2.45
2022-12-29T11:46:07.319Z,5.45
2022-12-29T11:48:41.209Z,4.10
2022-12-29T11:51:12.415Z,4.00
2022-12-29T11:53:47.898Z,5.25
2022-12-29T11:56:20.549Z,6.25
2022-12-29T11:58:50.391Z,5.32
2022-12-29T12:01:39.349Z,5.93
2022-12-29T12:04:15.216Z,5.65
2022-12-29T12:07:19.296Z,4.40
2022-12-29T12:10:06.547Z,2.55
2022-12-29T12:13:38.183Z,4.95
2022-12-29T12:16:15.188Z,6.30
2022-12-29T12:19:13.275Z,6.32
2022-12-29T12:21:45.970Z,4.63
2022-12-29T12:27:27.309Z,7.35
2022-12-29T12:30:17.670Z,4.28
2022-12-29T12:33:00.571Z,4.93
2022-12-29T12:35:54.430Z,8.05
2022-12-29T12:38:35.516Z,7.10
2022-12-29T12:42:00.504Z,6.65
2022-12-29T12:44:51.578Z,6.13
2022-12-29T12:47:42.454Z,3.85
2022-12-29T12:50:43.198Z,5.22
2022-12-29T12:53:39.421Z,9.25
2022-12-29T12:56:35.388Z,5.10
2022-12-29T12:59:36.306Z,5.82
2022-12-29T13:02:38.182Z,3.63
2022-12-29T13:05:30.056Z,10.43
2022-12-29T13:08:17.261Z,3.63
2022-12-29T13:11:00.325Z,6.82
2022-12-29T13:14:15.882Z,8.80
2022-12-29T13:16:59.774Z,7.22
2022-12-29T13:20:14.493Z,5.80
2022-12-29T13:22:57.511Z,4.57
2022-12-29T13:26:00.212Z,5.88
2022-12-29T13:28:50.315Z,7.68
2022-12-29T13:31:30.299Z,3.72
2022-12-29T13:34:11.304Z,5.43
2022-12-29T13:36:46.174Z,8.32
2022-12-29T13:39:34.123Z,5.82
2022-12-29T13:42:04.326Z,13.43
2022-12-29T13:44:39.657Z,12.27
2022-12-29T13:47:40.594Z,24.45
2022-12-29T13:50:19.265Z,23.02
2022-12-29T13:53:24.544Z,32.75
2022-12-29T13:56:10.184Z,20.38
2022-12-29T13:58:53.954Z,14.43
2022-12-29T14:02:03.162Z,11.23
2022-12-29T14:04:35.925Z,11.57
2022-12-29T14:07:13.653Z,7.45
2022-12-29T14:09:53.833Z,5.13
2022-12-29T14:12:41.303Z,5.40
2022-12-29T14:15:11.120Z,7.10
2022-12-29T14:17:41.359Z,5.40
2022-12-29T14:20:23.397Z,5.15
2022-12-29T14:23:16.625Z,4.18
2022-12-29T14:26:13.340Z,8.15
2022-12-29T14:28:47.267Z,5.30
2022-12-29T14:31:20.371Z,7.28
2022-12-29T14:34:12.024Z,4.90
2022-12-29T14:36:43.820Z,10.93
2022-12-29T14:39:35.007Z,7.93
2022-12-29T14:42:11.470Z,7.57
2022-12-29T14:44:59.245Z,6.28
2022-12-29T14:47:33.874Z,7.00
2022-12-29T14:50:12.175Z,6.90
2022-12-29T14:53:00.063Z,4.03
2022-12-29T14:55:50.934Z,5.35
2022-12-29T14:58:40.185Z,6.15
2022-12-29T15:01:41.687Z,5.45
2022-12-29T15:04:23.849Z,7.97
2022-12-29T15:06:52.581Z,9.50
2022-12-29T15:09:37.465Z,8.90
2022-12-29T15:12:39.249Z,8.18
2022-12-29T15:15:38.512Z,6.57
2022-12-29T15:18:29.535Z,7.68
2022-12-29T15:21:04.268Z,10.98
2022-12-29T15:23:35.578Z,10.68
2022-12-29T15:26:07.475Z,9.50
2022-12-29T15:28:42.666Z,5.43
2022-12-29T15:31:16.982Z,7.30
2022-12-29T15:33:48.668Z,6.07
2022-12-29T15:36:29.214Z,7.85
2022-12-29T15:38:59.344Z,6.82
2022-12-29T15:42:24.154Z,6.72
2022-12-29T15:44:58.123Z,6.57
2022-12-29T15:47:36.208Z,7.05
2022-12-29T15:50:31.600Z,5.50
2022-12-29T15:53:00.075Z,7.22
2022-12-29T15:55:41.084Z,19.20
2022-12-29T15:58:25.132Z,13.02
2022-12-29T16:00:59.855Z,9.43
2022-12-29T16:03:35.415Z,7.10
2022-12-29T16:06:11.870Z,10.50
2022-12-29T16:08:41.103Z,8.57
2022-12-29T16:11:32.060Z,5.20
2022-12-29T16:13:59.798Z,17.85
2022-12-29T16:16:42.198Z,8.82
2022-12-29T16:19:38.257Z,6.93
2022-12-29T16:22:17.203Z,8.32
2022-12-29T16:24:44.399Z,8.00
2022-12-29T16:27:33.915Z,7.03
2022-12-29T16:30:19.981Z,12.57
2022-12-29T16:32:50.846Z,6.22
2022-12-29T16:35:45.735Z,8.35
2022-12-29T16:38:18.243Z,9.98
2022-12-29T16:40:57.461Z,9.43
2022-12-29T16:43:30.673Z,5.13
2022-12-29T16:46:00.892Z,6.53
2022-12-29T16:48:35.902Z,8.32
2022-12-29T16:51:21.607Z,11.23
2022-12-29T16:53:55.821Z,13.23
2022-12-29T16:56:35.530Z,9.52
2022-12-29T16:59:26.690Z,10.65
2022-12-29T17:01:53.950Z,8.65
2022-12-29T17:04:21.274Z,8.88
2022-12-29T17:06:48.446Z,10.63
2022-12-29T17:09:26.256Z,8.82
2022-12-29T17:12:08.675Z,7.43
2022-12-29T17:14:43.947Z,7.32
2022-12-29T17:17:17.235Z,9.32
2022-12-29T17:19:50.132Z,11.05
2022-12-29T17:22:27.737Z,13.98
2022-12-29T17:25:00.032Z,10.25
2022-12-29T17:27:34.776Z,10.65
2022-12-29T17:30:18.598Z,7.00
2022-12-29T17:32:54.671Z,7.63
2022-12-29T17:35:22.988Z,6.00
2022-12-29T17:37:50.291Z,8.98
2022-12-29T17:40:30.761Z,10.85
2022-12-29T17:43:00.234Z,13.60
2022-12-29T17:45:32.773Z,43.90
2022-12-29T17:48:01.700Z,25.75
2022-12-29T17:50:31.433Z,26.00
2022-12-29T17:53:04.108Z,24.25
2022-12-29T17:55:37.534Z,22.48
2022-12-29T17:58:22.159Z,25.08
2022-12-29T18:00:57.512Z,17.10
2022-12-29T18:03:31.011Z,12.55
2022-12-29T18:05:59.219Z,9.85
2022-12-29T18:08:28.550Z,16.30
2022-12-29T18:10:56.380Z,15.90
2022-12-29T18:13:39.017Z,12.90
2022-12-29T18:16:12.461Z,16.90
2022-12-29T18:18:39.618Z,10.77
2022-12-29T18:21:06.982Z,10.23
2022-12-29T18:23:37.283Z,12.23
2022-12-29T18:26:28.669Z,10.90
2022-12-29T18:28:57.470Z,10.63
2022-12-29T18:31:31.856Z,9.40
2022-12-29T18:34:02.089Z,6.18
2022-12-29T18:36:29.601Z,12.13
2022-12-29T18:38:56.728Z,10.25
2022-12-29T18:41:31.175Z,9.18
2022-12-29T18:43:59.990Z,22.40
2022-12-29T18:46:27.431Z,10.88
2022-12-29T18:48:54.639Z,8.27
2022-12-29T18:51:24.857Z,10.63
2022-12-29T18:53:54.128Z,10.48
2022-12-29T18:56:23.097Z,10.65
2022-12-29T18:58:51.468Z,11.60
2022-12-29T19:01:23.371Z,10.90
2022-12-29T19:03:51.638Z,17.58
2022-12-29T19:06:21.165Z,10.27
2022-12-29T19:08:48.488Z,12.40
2022-12-29T19:11:16.050Z,9.23
2022-12-29T19:13:43.248Z,6.90
2022-12-29T19:16:20.984Z,8.02
2022-12-29T19:19:05.741Z,7.88
2022-12-29T19:21:37.146Z,7.68
2022-12-29T19:24:04.847Z,11.57
2022-12-29T19:26:36.599Z,7.63
2022-12-29T19:29:06.626Z,6.03
2022-12-29T19:31:34.811Z,7.32
2022-12-29T19:34:03.364Z,7.72
2022-12-29T19:36:30.995Z,9.80
2022-12-29T19:38:58.427Z,11.38
2022-12-29T19:41:25.875Z,8.73
2022-12-29T19:43:53.443Z,28.95
2022-12-29T19:46:21.220Z,8.10
2022-12-29T19:48:48.818Z,7.47
2022-12-29T19:51:17.244Z,7.05
2022-12-29T19:53:47.795Z,6.80
2022-12-29T19:56:15.484Z,8.40
2022-12-29T19:58:47.157Z,6.90
2022-12-29T20:01:22.613Z,13.43
2022-12-29T20:03:51.545Z,7.03
2022-12-29T20:06:19.822Z,13.90
2022-12-29T20:08:47.021Z,10.85
2022-12-29T20:11:18.137Z,11.30
2022-12-29T20:13:46.577Z,6.28
2022-12-29T20:16:17.950Z,5.85
2022-12-29T20:18:45.944Z,8.40
2022-12-29T20:21:20.152Z,7.00
2022-12-29T20:23:48.348Z,7.82
2022-12-29T20:26:29.061Z,6.75
2022-12-29T20:29:00.796Z,8.93
2022-12-29T20:31:36.281Z,7.53
2022-12-29T20:34:05.784Z,10.52
2022-12-29T20:36:35.609Z,6.90
2022-12-29T20:39:12.080Z,6.20
2022-12-29T20:41:39.241Z,7.07
2022-12-29T20:44:06.714Z,8.27
2022-12-29T20:46:41.216Z,4.28
2022-12-29T20:49:10.955Z,6.30
2022-12-29T20:52:05.122Z,9.25
2022-12-29T20:54:25.385Z,7.68
2022-12-29T20:56:52.568Z,6.15
2022-12-29T20:59:28.417Z,4.78
2022-12-29T21:01:58.175Z,10.07
2022-12-29T21:04:25.894Z,6.68
2022-12-29T21:06:53.183Z,7.13
2022-12-29T21:09:20.540Z,6.30
2022-12-29T21:11:48.892Z,5.05
2022-12-29T21:14:16.577Z,5.07
2022-12-29T21:16:44.167Z,8.43
2022-12-29T21:19:11.431Z,6.25
2022-12-29T21:21:38.586Z,3.20
2022-12-29T21:24:07.190Z,6.20
2022-12-29T21:26:34.362Z,5.25
2022-12-29T21:29:03.357Z,7.32
2022-12-29T21:31:36.189Z,7.72
2022-12-29T21:34:05.857Z,3.50
2022-12-29T21:36:34.241Z,6.40
2022-12-29T21:39:03.291Z,6.07
2022-12-29T21:41:31.180Z,4.72
2022-12-29T21:44:18.111Z,9.77
2022-12-29T21:46:47.736Z,8.07
2022-12-29T21:49:16.090Z,9.13
2022-12-29T21:51:57.386Z,3.45
2022-12-29T21:54:48.900Z,7.55
2022-12-29T21:57:37.472Z,7.20
2022-12-29T22:00:26.085Z,5.93
2022-12-29T22:03:18.663Z,8.63
2022-12-29T22:06:08.604Z,6.25
2022-12-29T22:08:55.247Z,9.25
2022-12-29T22:11:41.483Z,4.35
2022-12-29T22:14:08.776Z,9.88
2022-12-29T22:16:36.058Z,9.43
2022-12-29T22:19:03.659Z,7.05
2022-12-29T22:21:31.048Z,10.25
2022-12-29T22:23:58.206Z,9.98
2022-12-29T22:26:25.445Z,7.28
2022-12-29T22:28:52.721Z,11.85
2022-12-29T22:31:30.154Z,10.98
2022-12-29T22:34:01.235Z,9.30
2022-12-29T22:36:29.464Z,8.65
2022-12-29T22:38:57.060Z,9.75
2022-12-29T22:41:24.767Z,5.80
2022-12-29T22:43:51.999Z,9.88
2022-12-29T22:46:19.391Z,9.68
2022-12-29T22:48:46.890Z,10.77
2022-12-29T22:51:14.069Z,9.30
2022-12-29T22:53:41.317Z,7.28
2022-12-29T22:56:13.629Z,8.23
2022-12-29T22:58:44.107Z,11.52
2022-12-29T23:01:14.839Z,10.77
2022-12-29T23:03:43.097Z,11.43
2022-12-29T23:06:14.866Z,10.40
2022-12-29T23:08:43.596Z,13.68
2022-12-29T23:11:13.229Z,15.02
2022-12-29T23:13:42.154Z,11.00
2022-12-29T23:16:09.410Z,11.65
2022-12-29T23:18:37.230Z,13.40
2022-12-29T23:21:05.321Z,14.77
2022-12-29T23:23:51.067Z,16.23
2022-12-29T23:26:22.369Z,13.80
2022-12-29T23:28:53.553Z,9.18
2022-12-29T23:31:26.145Z,10.68
2022-12-29T23:33:55.468Z,14.88
2022-12-29T23:36:23.289Z,12.75
2022-12-29T23:38:50.510Z,17.42
2022-12-29T23:41:17.812Z,15.07
2022-12-29T23:43:45.497Z,10.93
2022-12-29T23:46:19.109Z,16.27
2022-12-29T23:48:46.348Z,13.30
2022-12-29T23:51:13.925Z,13.02
2022-12-29T23:53:44.142Z,12.80
2022-12-29T23:56:20.633Z,17.67
2022-12-29T23:58:48.448Z,11.07
